Bei Facebook empfehlenBei Twitter postenGoogle plusPinterest

Das Wetter im Erzgebirge am 08.07.2016

Wetter und Klima am 08.07.2016 Holzhau im Erzgebirge (630m ü.NN)
Letzte gemessene Temperatur und Uhrzeit der Messung23:45:00 Uhr13.80 °C
Temperatur (Maximum / Höchstwert) und Uhrzeit der Messung16:30:00 Uhr25.60 °C
Temperatur (Minimum / Tiefstwert) und Uhrzeit der Messung02:00:007.40 °C
Errechneter Absolutwert der Temperaturschwankungen zwischen Tmin und Tmax des Tages18.20 K
Errechnete Tagesmitteltemperatur17.10313 °C
Gesamt - Niederschlag des Tages (in flüssiger Form)0.00 Liter / m²
Luftdruck (Maximum / Höchstwert) und Zeitpunkt der Messung00:15:00 Uhr1017.80 hPa
Luftdruck (Minimum / Tiefstwert) und Zeitpunkt der Messung19:30:00 Uhr1011.70 hPa
Errechneter Absolutwert der Luftdruckschwankungen des Tages6.10 hPa
Höchste gemessene Windgeschwindigkeit und Uhrzeit der Messung23:45:00 Uhr0.00 km/h
Errechnete Windhäufigkeit in Relation zu den Messwerten des Tages0.00000 %
Niedrigste Windkühle (Windchill) und Zeitpunkt der Messung02:00:00 Uhr7.40 °C
Taupunkt (Maximum / Höchstwert) und Uhrzeit der Messung18:30:00 Uhr14.90 °C
Taupunkt (Minimum / Tiefstwert) und Uhrzeit der Messung01:45:005.20 °C
Anzahl der automatisch eingelesenen Messwerte 96

Detaillierte Wetter- und Klima- Messwerte für den 08.07.2016 in Holzhau im Erzgebirge (630m ü.NN)
ZeitTemperaturLuftdruckRel. LuftfeuchteWindWindrichtungWindchillTaupunktNiederschlag l/m²
23:45:0013.80 °C1013.00 hPa82.00 %10.80 °C 
23:30:0014.00 °C1013.00 hPa80.00 %10.60 °C 
23:15:0014.50 °C1013.10 hPa79.00 %10.90 °C 
23:00:0014.90 °C1013.20 hPa79.00 %11.30 °C 
22:45:0015.10 °C1013.20 hPa79.00 %11.50 °C 
22:30:0014.40 °C1013.00 hPa80.00 %11.00 °C 
22:15:0014.50 °C1013.00 hPa79.00 %10.90 °C 
22:00:0014.50 °C1012.70 hPa80.00 %11.10 °C 
21:45:0014.60 °C1012.70 hPa80.00 %11.20 °C 
21:30:0014.90 °C1012.50 hPa79.00 %11.30 °C 
21:15:0015.80 °C1012.20 hPa77.00 %11.80 °C 
21:00:0016.20 °C1012.30 hPa76.00 %12.00 °C 
20:45:0016.50 °C1012.20 hPa74.00 %11.90 °C 
20:30:0016.60 °C1012.10 hPa72.00 %11.50 °C 
20:15:0017.10 °C1012.10 hPa68.00 %11.20 °C 
20:00:0018.80 °C1012.00 hPa61.00 %11.10 °C 
19:45:0021.60 °C1012.30 hPa55.00 %12.20 °C 
19:30:0022.40 °C1011.70 hPa53.00 %12.40 °C 
19:15:0023.20 °C1011.90 hPa53.00 %13.10 °C 
19:00:0023.50 °C1012.00 hPa53.00 %13.40 °C 
18:45:0024.30 °C1012.20 hPa55.00 %14.70 °C 
18:30:0024.50 °C1012.20 hPa55.00 %14.90 °C 
18:15:0024.50 °C1012.30 hPa53.00 %14.30 °C 
18:00:0024.40 °C1012.30 hPa54.00 %14.50 °C 
17:45:0024.30 °C1012.60 hPa52.00 %13.80 °C 
17:30:0024.40 °C1012.60 hPa50.00 %13.30 °C 
17:15:0024.20 °C1012.80 hPa49.00 %12.80 °C 
17:00:0024.60 °C1012.80 hPa47.00 %12.50 °C 
16:45:0025.00 °C1013.10 hPa47.00 %12.90 °C 
16:30:0025.60 °C1013.00 hPa47.00 %13.50 °C 
16:15:0025.20 °C1013.20 hPa46.00 %12.80 °C 
16:00:0024.80 °C1013.20 hPa47.00 %12.70 °C 
15:45:0024.70 °C1013.30 hPa47.00 %12.60 °C 
15:30:0024.90 °C1013.30 hPa47.00 %12.80 °C 
15:15:0025.50 °C1013.50 hPa49.00 %14.00 °C 
15:00:0024.90 °C1013.60 hPa50.00 %13.80 °C 
14:45:0024.90 °C1014.00 hPa50.00 %13.80 °C 
14:30:0024.60 °C1014.10 hPa51.00 %13.80 °C 
14:15:0024.50 °C1013.90 hPa51.00 %13.70 °C 
14:00:0024.70 °C1014.10 hPa51.00 %13.90 °C 
13:45:0024.40 °C1014.10 hPa49.00 %13.00 °C 
13:30:0025.00 °C1014.30 hPa48.00 %13.20 °C 
13:15:0024.80 °C1014.30 hPa53.00 %14.60 °C 
13:00:0024.10 °C1014.50 hPa52.00 %13.60 °C 
12:45:0023.90 °C1014.80 hPa54.00 %14.00 °C 
12:30:0023.70 °C1014.90 hPa53.00 %13.60 °C 
12:15:0023.20 °C1014.90 hPa52.00 %12.80 °C 
12:00:0023.30 °C1015.00 hPa51.00 %12.60 °C 
11:45:0022.90 °C1014.90 hPa53.00 %12.80 °C 
11:30:0022.10 °C1014.90 hPa54.00 %12.40 °C 
11:15:0021.90 °C1015.10 hPa55.00 %12.50 °C 
11:00:0020.90 °C1015.10 hPa56.00 %11.80 °C 
10:45:0021.30 °C1015.20 hPa55.00 %11.90 °C 
10:30:0021.20 °C1015.10 hPa56.00 %12.10 °C 
10:15:0020.90 °C1015.20 hPa56.00 %11.80 °C 
10:00:0020.50 °C1015.40 hPa57.00 %11.70 °C 
09:45:0020.10 °C1015.60 hPa58.00 %11.60 °C 
09:30:0019.60 °C1015.40 hPa61.00 %11.90 °C 
09:15:0018.50 °C1015.70 hPa63.00 %11.30 °C 
09:00:0017.90 °C1015.80 hPa65.00 %11.20 °C 
08:45:0017.50 °C1015.80 hPa66.00 %11.10 °C 
08:30:0017.10 °C1015.80 hPa68.00 %11.20 °C 
08:15:0017.00 °C1015.80 hPa70.00 %11.50 °C 
08:00:0016.50 °C1016.00 hPa74.00 %11.90 °C 
07:45:0015.50 °C1016.10 hPa78.00 %11.70 °C 
07:30:0013.90 °C1016.30 hPa82.00 %10.90 °C 
07:15:0013.30 °C1016.20 hPa83.00 %10.50 °C 
07:00:0012.40 °C1016.10 hPa85.00 %10.00 °C 
06:45:0011.60 °C1016.20 hPa85.00 %9.20 °C 
06:30:0011.10 °C1016.30 hPa85.00 %8.70 °C 
06:15:0010.80 °C1016.10 hPa86.00 %8.60 °C 
06:00:0010.10 °C1016.20 hPa86.00 %7.90 °C 
05:45:0010.10 °C1016.30 hPa86.00 %7.90 °C 
05:30:0010.10 °C1016.40 hPa85.00 %7.70 °C 
05:15:0010.10 °C1016.30 hPa85.00 %7.70 °C 
05:00:0010.10 °C1016.10 hPa86.00 %7.90 °C 
04:45:009.80 °C1016.30 hPa86.00 %7.60 °C 
04:30:009.30 °C1016.20 hPa86.00 %7.10 °C 
04:15:008.90 °C1016.20 hPa86.00 %6.70 °C 
04:00:008.90 °C1016.60 hPa86.00 %6.70 °C 
03:45:008.80 °C1016.60 hPa87.00 %6.80 °C 
03:30:008.60 °C1016.60 hPa87.00 %6.60 °C 
03:15:008.30 °C1016.80 hPa87.00 %6.30 °C 
03:00:008.00 °C1016.90 hPa87.00 %6.00 °C 
02:45:007.90 °C1017.10 hPa87.00 %5.90 °C 
02:30:007.90 °C1017.30 hPa87.00 %5.90 °C 
02:15:007.80 °C1017.40 hPa87.00 %5.80 °C 
02:00:007.40 °C1017.10 hPa87.00 %5.40 °C 
01:45:007.40 °C1017.30 hPa86.00 %5.20 °C 
01:30:007.50 °C1017.30 hPa86.00 %5.30 °C 
01:15:007.60 °C1017.30 hPa86.00 %5.40 °C 
01:00:007.60 °C1017.50 hPa86.00 %5.40 °C 
00:45:007.70 °C1017.60 hPa86.00 %5.50 °C 
00:30:007.60 °C1017.60 hPa85.00 %5.20 °C 
00:15:007.90 °C1017.80 hPa84.00 %5.40 °C 
00:00:008.20 °C1017.70 hPa84.00 %5.70 °C 

Permanenter Link zu dieser Seite: Wetter im Erzgebirge am 08.07.2016
Performance-Info: Die Erstellung der Seite / Statistik(en) / Tabelle(n) erforderte 5 Datenbankserver-Abfrage(n) und dauerte 95 Millisekunden. (Dieser Messwert ist von der Gesamt-Auslastung des Servers abhängig.)
Erzgebirge - Wetter | Erzgebirge - Wetter (Mobilgeräte) | Komplette Klimadatenbank